Time;durP1;ratioP1;P1;durP2;ratioP2;P2;SDS_P1;SDS_P2;PMS_P1;PMS_P2;Temp;Humidity;BMP_temperature;BMP_pressure;BME280_temperature;BME280_humidity;BME280_pressure;Samples;Min_cycle;Max_cycle;Signal;HPM_P1;HPM_P2
2021/04/16 00:01:31;;;;;;;34.38;16.30;;;;;;;1.02;82.16;98756.69;5008179;28;20037;-75
2021/04/16 00:03:57;;;;;;;40.22;17.95;;;;;;;1.03;82.01;98750.22;5008676;28;20488;-74
2021/04/16 00:06:22;;;;;;;46.90;21.85;;;;;;;1.06;82.28;98746.22;5008372;28;20103;-75
2021/04/16 00:08:48;;;;;;;40.17;17.80;;;;;;;1.10;81.98;98738.50;5008688;28;20025;-75
2021/04/16 00:11:20;;;;;;;43.58;19.17;;;;;;;1.06;81.69;98742.72;5020844;28;20083;-74
2021/04/16 00:13:46;;;;;;;39.47;18.40;;;;;;;1.03;81.83;98741.28;5015213;28;20029;-75
2021/04/16 00:16:15;;;;;;;35.97;15.98;;;;;;;0.99;81.85;98737.41;5008089;28;20033;-75
2021/04/16 00:18:40;;;;;;;37.67;17.02;;;;;;;0.94;81.51;98739.97;5008305;28;20022;-75
2021/04/16 00:21:06;;;;;;;43.88;17.70;;;;;;;0.95;81.57;98733.50;5008523;28;20018;-75
2021/04/16 00:23:31;;;;;;;39.13;17.25;;;;;;;0.94;81.94;98727.28;4990506;28;20025;-75
2021/04/16 00:25:57;;;;;;;36.63;16.48;;;;;;;0.94;81.81;98729.97;5008149;28;20022;-75
2021/04/16 00:28:23;;;;;;;39.65;17.42;;;;;;;0.95;82.01;98733.50;5007638;28;20520;-75
2021/04/16 00:30:55;;;;;;;41.38;18.33;;;;;;;0.92;81.94;98737.47;5007933;28;20033;-75
2021/04/16 00:33:22;;;;;;;40.35;18.35;;;;;;;0.94;81.89;98731.84;5007850;28;20034;-75
2021/04/16 00:35:48;;;;;;;47.92;19.42;;;;;;;0.93;82.11;98733.72;5007903;28;20065;-75
2021/04/16 00:38:15;;;;;;;42.28;17.42;;;;;;;0.92;81.90;98731.25;5007912;28;20053;-75
2021/04/16 00:40:50;;;;;;;46.05;20.83;;;;;;;0.90;82.31;98728.78;5007763;28;20022;-75
2021/04/16 00:43:18;;;;;;;40.58;17.58;;;;;;;0.87;82.35;98732.75;5007757;28;20030;-76
2021/04/16 00:45:45;;;;;;;45.20;19.50;;;;;;;0.85;81.94;98731.31;5005715;28;20108;-75
2021/04/16 00:48:32;;;;;;;46.45;19.27;;;;;;;0.80;82.17;98733.91;4989847;28;20030;-75
2021/04/16 00:51:03;;;;;;;41.15;18.15;;;;;;;0.81;81.99;98730.16;5007034;28;20033;-76
2021/04/16 00:53:29;;;;;;;38.33;16.55;;;;;;;0.82;82.38;98731.78;5007828;28;20086;-75
2021/04/16 00:55:54;;;;;;;37.88;14.82;;;;;;;0.85;82.65;98729.47;4989942;28;20022;-75
2021/04/16 00:58:23;;;;;;;40.95;17.95;;;;;;;0.86;82.58;98730.28;5007342;28;20038;-75
2021/04/16 01:00:53;;;;;;;43.55;19.15;;;;;;;0.87;82.35;98724.66;5007179;28;20038;-75
2021/04/16 01:03:19;;;;;;;44.00;18.35;;;;;;;0.82;82.42;98713.72;5007800;28;20026;-75
2021/04/16 01:05:44;;;;;;;44.10;18.95;;;;;;;0.81;82.32;98733.66;5007617;28;20028;-75
2021/04/16 01:08:11;;;;;;;40.05;18.50;;;;;;;0.81;82.45;98722.84;5007551;28;20034;-75
2021/04/16 01:10:37;;;;;;;33.65;16.42;;;;;;;0.87;82.62;98721.13;5007666;28;20037;-75
2021/04/16 01:13:05;;;;;;;38.53;16.17;;;;;;;0.85;83.02;98718.66;5006927;28;20026;-75
2021/04/16 01:15:35;;;;;;;38.78;16.27;;;;;;;0.86;82.78;98717.59;5007675;28;20026;-75
2021/04/16 01:18:15;;;;;;;38.67;17.83;;;;;;;0.86;83.03;98722.16;4989989;28;20118;-75
2021/04/16 01:20:44;;;;;;;39.92;17.58;;;;;;;0.84;83.01;98727.81;5007595;28;20025;-75
2021/04/16 01:23:41;;;;;;;41.90;18.65;;;;;;;0.83;82.61;98720.75;5007392;28;20034;-75
2021/04/16 01:26:09;;;;;;;35.47;16.42;;;;;;;0.85;83.17;98724.06;5007565;28;20086;-75
2021/04/16 01:28:34;;;;;;;38.92;17.40;;;;;;;0.81;82.47;98728.25;5007145;28;20064;-75
2021/04/16 01:31:07;;;;;;;42.67;18.05;;;;;;;0.85;83.02;98723.22;5007218;28;20101;-75
2021/04/16 01:33:34;;;;;;;38.45;16.80;;;;;;;0.84;82.57;98718.88;5007211;28;20029;-75
2021/04/16 01:36:01;;;;;;;40.05;18.33;;;;;;;0.85;83.16;98723.22;5006759;28;20022;-75
2021/04/16 01:38:27;;;;;;;38.70;18.10;;;;;;;0.88;83.05;98720.06;5006965;28;20029;-75
2021/04/16 01:40:52;;;;;;;40.15;17.00;;;;;;;0.92;83.13;98707.75;5007044;28;20018;-75
2021/04/16 01:43:25;;;;;;;34.67;16.10;;;;;;;0.93;83.08;98714.00;5006918;28;20057;-75
2021/04/16 01:46:07;;;;;;;35.38;16.95;;;;;;;0.93;83.10;98714.00;5006519;28;20022;-75
2021/04/16 01:48:38;;;;;;;36.92;17.65;;;;;;;0.92;83.16;98713.16;5005589;28;20033;-75
2021/04/16 01:51:05;;;;;;;32.45;15.73;;;;;;;0.93;83.21;98711.31;5006690;28;20057;-75
2021/04/16 01:53:30;;;;;;;34.20;16.90;;;;;;;0.95;83.08;98711.91;5006945;28;20068;-75
2021/04/16 01:55:56;;;;;;;35.20;16.40;;;;;;;1.00;83.19;98707.47;5007049;28;20030;-75
2021/04/16 01:58:21;;;;;;;33.78;15.93;;;;;;;1.04;82.88;98713.22;5006904;28;20079;-75
2021/04/16 02:00:48;;;;;;;31.38;15.88;;;;;;;1.01;83.46;98694.78;4989274;28;20028;-75
2021/04/16 02:03:13;;;;;;;30.77;15.75;;;;;;;0.95;82.62;98696.50;5006795;28;20462;-75
2021/04/16 02:05:38;;;;;;;31.58;15.88;;;;;;;0.94;82.86;98697.56;4989339;28;20045;-75
2021/04/16 02:08:04;;;;;;;30.70;14.65;;;;;;;0.92;82.84;98696.97;5006339;28;20548;-75
2021/04/16 02:10:30;;;;;;;24.90;13.43;;;;;;;0.93;83.25;98698.63;5006854;28;20073;-75
2021/04/16 02:12:55;;;;;;;25.75;13.60;;;;;;;0.89;83.12;98708.22;5006854;28;20381;-74
2021/04/16 02:15:21;;;;;;;29.88;16.08;;;;;;;0.85;83.53;98702.47;5006621;28;20030;-75
2021/04/16 02:17:46;;;;;;;30.48;15.55;;;;;;;0.84;83.21;98703.50;5006581;28;20034;-75
2021/04/16 02:20:19;;;;;;;26.40;15.05;;;;;;;0.84;83.21;98700.81;5006862;28;20022;-75
2021/04/16 02:22:44;;;;;;;27.35;13.98;;;;;;;0.87;83.42;98697.66;5004101;28;20083;-75
2021/04/16 02:25:11;;;;;;;29.08;14.55;;;;;;;0.84;83.10;98714.31;5009695;28;20030;-74
2021/04/16 02:27:36;;;;;;;29.13;15.25;;;;;;;0.81;83.33;98705.84;5009978;28;20026;-76
2021/04/16 02:30:07;;;;;;;25.90;12.77;;;;;;;0.80;83.35;98704.19;5010045;28;20022;-75
2021/04/16 02:32:33;;;;;;;30.80;15.55;;;;;;;0.78;83.09;98703.59;5010065;28;20128;-76
2021/04/16 02:34:58;;;;;;;23.95;13.27;;;;;;;0.82;83.89;98708.31;5010238;28;20533;-76
2021/04/16 02:37:23;;;;;;;21.80;12.15;;;;;;;0.81;83.48;98700.44;5009953;28;20113;-76
2021/04/16 02:39:50;;;;;;;24.00;13.10;;;;;;;0.78;83.49;98699.00;5009990;28;20401;-76
2021/04/16 02:42:15;;;;;;;21.35;12.80;;;;;;;0.79;83.47;98695.25;5008759;28;20022;-76
2021/04/16 02:44:42;;;;;;;19.27;10.55;;;;;;;0.81;83.46;98700.44;5009819;28;20056;-76
2021/04/16 02:47:09;;;;;;;22.48;13.18;;;;;;;0.87;83.60;98700.34;5009618;28;20105;-76
2021/04/16 02:49:34;;;;;;;20.02;10.65;;;;;;;0.87;83.46;98697.66;5009627;28;20113;-76
2021/04/16 02:52:00;;;;;;;20.88;11.70;;;;;;;0.85;83.24;98701.63;5009601;28;20122;-76
2021/04/16 02:54:25;;;;;;;22.08;11.75;;;;;;;0.82;83.20;98704.78;5009540;28;20026;-76
2021/04/16 02:56:51;;;;;;;20.25;10.98;;;;;;;0.82;83.45;98697.50;5009709;28;20058;-76
2021/04/16 02:59:22;;;;;;;22.73;12.77;;;;;;;0.84;83.51;98700.81;5009355;28;20101;-76
2021/04/16 03:01:49;;;;;;;23.77;12.93;;;;;;;0.84;83.28;98700.81;5008954;28;20025;-76
2021/04/16 03:04:15;;;;;;;21.00;12.25;;;;;;;0.85;83.61;98707.00;5009180;28;20101;-76
2021/04/16 03:06:41;;;;;;;19.98;10.90;;;;;;;0.85;83.35;98699.75;5009173;28;20537;-76
2021/04/16 03:09:07;;;;;;;25.40;12.57;;;;;;;0.81;83.07;98695.84;5009311;28;20034;-76
2021/04/16 03:11:32;;;;;;;22.02;12.10;;;;;;;0.85;83.62;98697.06;5009205;28;20026;-76
2021/04/16 03:13:58;;;;;;;20.55;11.35;;;;;;;0.88;83.54;98703.88;5009172;28;20053;-76
2021/04/16 03:16:26;;;;;;;15.02;9.70;;;;;;;0.85;82.92;98696.22;5009290;28;20040;-76
2021/04/16 03:18:53;;;;;;;17.80;10.27;;;;;;;0.80;83.02;98704.19;5009107;28;20022;-76
2021/04/16 03:21:19;;;;;;;26.30;13.68;;;;;;;0.77;83.04;98699.25;5023510;28;20027;-76
2021/04/16 03:23:44;;;;;;;20.23;11.20;;;;;;;0.76;83.42;98695.72;5009325;28;20029;-76
2021/04/16 03:26:10;;;;;;;18.75;11.35;;;;;;;0.79;83.62;98689.84;5007289;28;20387;-76
2021/04/16 03:28:35;;;;;;;19.05;10.88;;;;;;;0.86;83.48;98701.41;5009234;28;20025;-76
2021/04/16 03:31:01;;;;;;;16.23;9.63;;;;;;;0.90;83.48;98699.06;5009249;28;20034;-76
2021/04/16 03:33:26;;;;;;;19.40;10.63;;;;;;;0.84;83.32;98703.50;5009223;28;20018;-76
2021/04/16 03:35:52;;;;;;;13.43;9.10;;;;;;;0.85;83.28;98702.47;5008079;28;20046;-76
2021/04/16 03:38:18;;;;;;;12.88;8.10;;;;;;;0.83;82.83;98707.25;5008948;28;20026;-76
2021/04/16 03:40:44;;;;;;;16.63;9.90;;;;;;;0.83;83.20;98699.16;5009166;28;20552;-76
2021/04/16 03:43:09;;;;;;;16.17;9.27;;;;;;;0.83;83.39;98699.16;5008615;28;20025;-75
2021/04/16 03:45:34;;;;;;;16.77;9.73;;;;;;;0.81;83.16;98700.44;5008607;28;20032;-76
2021/04/16 03:48:00;;;;;;;16.70;9.23;;;;;;;0.78;83.02;98703.59;5008654;28;20061;-76
2021/04/16 03:50:28;;;;;;;12.98;7.68;;;;;;;0.75;82.80;98702.16;5010007;28;20029;-76
2021/04/16 03:52:54;;;;;;;12.63;7.63;;;;;;;0.75;82.62;98699.47;4992450;28;20075;-75
2021/04/16 03:55:22;;;;;;;14.23;8.38;;;;;;;0.73;83.04;98697.00;5009446;28;20032;-75
2021/04/16 03:57:47;;;;;;;16.13;8.85;;;;;;;0.73;82.93;98699.69;5009884;28;20063;-76
2021/04/16 04:00:17;;;;;;;12.13;7.75;;;;;;;0.74;83.45;98701.34;5009507;28;20080;-76
2021/04/16 04:02:43;;;;;;;12.57;6.97;;;;;;;0.76;82.94;98701.09;5010803;28;20030;-76
2021/04/16 04:05:09;;;;;;;12.05;7.43;;;;;;;0.71;82.93;98706.34;4993103;28;20033;-76
2021/04/16 04:07:34;;;;;;;11.73;7.47;;;;;;;0.66;83.13;98707.03;5063102;28;20047;-76
2021/04/16 04:10:00;;;;;;;15.25;8.55;;;;;;;0.67;82.88;98699.75;5103868;28;20027;-76
2021/04/16 04:12:25;;;;;;;11.55;7.05;;;;;;;0.67;83.07;98705.16;5114253;28;20027;-76
2021/04/16 04:14:50;;;;;;;13.75;8.18;;;;;;;0.67;82.72;98700.59;5114103;28;20353;-75
2021/04/16 04:17:30;;;;;;;11.85;7.68;;;;;;;0.71;82.89;98701.78;5112946;28;20102;-75
2021/04/16 04:19:56;;;;;;;9.65;6.18;;;;;;;0.74;82.94;98705.91;5106413;28;20038;-76
2021/04/16 04:22:21;;;;;;;12.48;8.00;;;;;;;0.78;82.56;98709.00;5030208;28;20026;-76
2021/04/16 04:24:47;;;;;;;11.85;7.63;;;;;;;0.78;82.87;98701.72;5010658;28;20022;-76
2021/04/16 04:27:13;;;;;;;11.23;7.35;;;;;;;0.76;82.63;98703.81;5010773;28;20166;-76
2021/04/16 04:29:39;;;;;;;13.23;8.60;;;;;;;0.73;82.61;98701.56;5009509;28;20026;-75
2021/04/16 04:32:05;;;;;;;11.30;7.05;;;;;;;0.78;82.96;98699.00;5009724;28;20086;-75
2021/04/16 04:34:30;;;;;;;11.48;7.25;;;;;;;0.76;82.58;98698.41;5010525;28;20025;-78
2021/04/16 04:36:58;;;;;;;10.95;7.38;;;;;;;0.79;83.03;98700.66;5010570;28;20527;-78
2021/04/16 04:39:26;;;;;;;11.48;7.00;;;;;;;0.76;82.47;98694.91;5009936;28;20030;-77
2021/04/16 04:41:52;;;;;;;12.45;8.27;;;;;;;0.71;82.79;98700.97;5010160;28;20049;-77
2021/04/16 04:44:17;;;;;;;11.98;7.30;;;;;;;0.69;82.70;98703.06;5009536;28;20494;-77
2021/04/16 04:46:43;;;;;;;12.77;7.43;;;;;;;0.68;82.87;98707.66;5009274;28;20037;-77
2021/04/16 04:49:09;;;;;;;10.63;6.35;;;;;;;0.73;82.99;98705.09;5014573;28;20030;-77
2021/04/16 04:51:37;;;;;;;14.25;7.78;;;;;;;0.74;82.55;98700.50;5010045;28;20485;-78
2021/04/16 04:54:04;;;;;;;11.95;7.03;;;;;;;0.69;82.41;98708.47;5048640;28;20111;-78
2021/04/16 04:56:29;;;;;;;11.52;7.22;;;;;;;0.70;82.79;98700.16;5112185;28;20147;-78
2021/04/16 04:58:55;;;;;;;9.75;6.22;;;;;;;0.68;82.73;98709.50;5039810;28;20024;-77
2021/04/16 05:01:20;;;;;;;12.40;6.47;;;;;;;0.66;82.79;98704.34;5015497;28;20463;-77
2021/04/16 05:03:46;;;;;;;11.15;6.97;;;;;;;0.64;82.66;98708.31;5010533;28;20430;-77
2021/04/16 05:06:11;;;;;;;10.90;6.80;;;;;;;0.62;83.17;98711.25;5107224;28;20046;-76
2021/04/16 05:08:37;;;;;;;7.75;4.97;;;;;;;0.68;83.23;98717.59;5051883;28;20396;-77
2021/04/16 05:11:02;;;;;;;11.20;7.03;;;;;;;0.69;82.79;98713.84;5110485;28;20036;-77
2021/04/16 05:13:28;;;;;;;10.55;6.03;;;;;;;0.68;82.96;98720.31;5112917;28;20114;-77
2021/04/16 05:15:54;;;;;;;11.77;6.47;;;;;;;0.67;82.92;98711.41;5112909;28;20106;-78
2021/04/16 05:18:20;;;;;;;12.48;7.05;;;;;;;0.70;83.17;98702.84;5038606;28;20785;-76
2021/04/16 05:20:46;;;;;;;12.65;7.25;;;;;;;0.74;82.66;98714.00;5113134;28;20076;-77
2021/04/16 05:23:11;;;;;;;10.85;7.47;;;;;;;0.77;82.87;98716.25;5112643;28;20383;-77
2021/04/16 05:25:36;;;;;;;25.95;15.90;;;;;;;0.78;82.52;98717.09;5056693;28;20022;-77
2021/04/16 05:28:02;;;;;;;14.32;8.05;;;;;;;0.79;82.83;98718.75;5014282;28;20064;-76
2021/04/16 05:30:28;;;;;;;17.55;11.27;;;;;;;0.84;82.87;98717.00;5010245;28;20033;-77
2021/04/16 05:32:53;;;;;;;16.08;9.25;;;;;;;0.90;82.59;98726.06;5045151;28;20475;-77
2021/04/16 05:35:19;;;;;;;13.35;7.20;;;;;;;0.97;82.85;98713.31;5092750;28;20030;-77
2021/04/16 05:37:44;;;;;;;13.38;9.27;;;;;;;0.92;82.60;98713.16;5009429;28;20401;-77
2021/04/16 05:40:10;;;;;;;14.50;8.57;;;;;;;0.91;82.36;98719.63;5009610;28;20398;-77
2021/04/16 05:42:36;;;;;;;16.00;11.30;;;;;;;0.98;82.55;98712.25;5009363;28;20037;-77
2021/04/16 05:45:03;;;;;;;32.58;12.23;;;;;;;0.96;82.55;98708.97;5009472;28;20029;-77
2021/04/16 05:47:29;;;;;;;16.35;10.15;;;;;;;0.90;82.43;98712.56;5010217;28;20081;-77
2021/04/16 05:49:55;;;;;;;10.38;7.32;;;;;;;0.91;82.67;98711.50;5104788;28;20506;-76
2021/04/16 05:52:21;;;;;;;9.38;6.93;;;;;;;0.92;82.53;98715.88;5112509;28;20051;-76
2021/04/16 05:54:46;;;;;;;11.80;8.18;;;;;;;0.95;82.31;98718.13;5056878;28;20367;-77
2021/04/16 05:57:12;;;;;;;10.35;7.47;;;;;;;0.99;82.63;98713.09;5022628;28;20045;-77
2021/04/16 05:59:37;;;;;;;13.13;8.13;;;;;;;1.00;82.66;98717.47;5115334;28;20077;-77
2021/04/16 06:02:03;;;;;;;12.88;7.78;;;;;;;0.99;82.56;98716.63;5030150;28;20483;-77
2021/04/16 06:04:30;;;;;;;11.98;7.80;;;;;;;0.95;82.31;98711.91;5025942;28;20085;-78
2021/04/16 06:06:55;;;;;;;19.63;11.43;;;;;;;0.99;82.52;98710.41;5065603;28;20043;-77
2021/04/16 06:09:21;;;;;;;10.55;6.72;;;;;;;1.02;82.81;98708.06;5115654;28;20517;-77
2021/04/16 06:11:46;;;;;;;11.40;7.25;;;;;;;1.05;82.37;98712.16;5116351;28;20106;-78
2021/04/16 06:14:13;;;;;;;10.27;6.70;;;;;;;1.05;82.49;98704.06;5116379;28;20028;-77
2021/04/16 06:16:38;;;;;;;13.10;7.28;;;;;;;1.12;82.40;98704.00;5116228;28;20059;-78
2021/04/16 06:19:07;;;;;;;9.45;6.38;;;;;;;1.09;82.66;98707.97;5108232;28;20102;-78
2021/04/16 06:21:33;;;;;;;8.73;5.93;;;;;;;1.11;82.15;98703.16;5115936;28;20038;-77
2021/04/16 06:23:59;;;;;;;11.93;7.18;;;;;;;1.09;82.35;98702.56;5079467;28;20049;-78
2021/04/16 06:26:25;;;;;;;12.32;7.15;;;;;;;1.04;81.99;98705.97;5012248;28;20061;-77
2021/04/16 06:28:50;;;;;;;8.48;5.45;;;;;;;1.03;82.48;98706.16;5018481;28;20465;-77
2021/04/16 06:31:18;;;;;;;10.15;7.13;;;;;;;1.04;82.33;98699.72;5007277;28;20030;-77
2021/04/16 06:33:43;;;;;;;11.90;6.72;;;;;;;1.08;83.11;98709.00;5012094;28;20030;-76
2021/04/16 06:36:11;;;;;;;9.15;5.47;;;;;;;1.07;82.69;98707.38;5011857;28;20500;-76
2021/04/16 06:38:39;;;;;;;13.68;7.07;;;;;;;1.12;82.63;98706.69;5016194;28;20034;-77
2021/04/16 06:41:27;;;;;;;16.42;9.30;;;;;;;1.07;82.28;98706.56;5105510;28;20463;-77
2021/04/16 06:44:11;;;;;;;33.13;12.50;;;;;;;1.05;82.60;98717.56;5052942;28;20126;-77
2021/04/16 06:46:38;;;;;;;13.10;6.93;;;;;;;1.04;82.56;98722.16;5012388;28;20578;-77
2021/04/16 06:49:10;;;;;;;61.45;19.02;;;;;;;1.04;82.77;98715.91;5061680;28;20045;-77
2021/04/16 06:51:42;;;;;;;44.95;21.27;;;;;;;1.11;82.79;98715.84;5031937;28;20025;-77
2021/04/16 06:54:16;;;;;;;35.00;12.68;;;;;;;1.14;82.43;98718.91;5017135;28;20033;-77
2021/04/16 06:56:46;;;;;;;63.28;17.10;;;;;;;1.21;82.57;98712.59;5016309;28;20040;-78
2021/04/16 06:59:24;;;;;;;42.28;13.55;;;;;;;1.18;82.59;98714.69;4995246;28;20082;-78
2021/04/16 07:02:05;;;;;;;27.92;11.15;;;;;;;1.21;82.62;98718.00;5040061;28;20040;-77
2021/04/16 07:04:50;;;;;;;20.77;9.55;;;;;;;1.28;83.17;98722.25;5009983;28;20034;-78
2021/04/16 07:07:23;;;;;;;14.95;7.78;;;;;;;1.26;82.40;98716.25;5040864;28;20049;-76
2021/04/16 07:09:59;;;;;;;12.40;7.43;;;;;;;1.27;82.20;98720.59;5077545;28;20030;-78
2021/04/16 07:12:26;;;;;;;13.35;8.07;;;;;;;1.26;82.64;98720.84;5001128;28;20777;-77
2021/04/16 07:14:54;;;;;;;10.88;7.72;;;;;;;1.23;82.74;98716.72;5011924;28;20026;-78
2021/04/16 07:17:27;;;;;;;14.02;9.18;;;;;;;1.27;82.45;98717.09;5018633;28;20226;-76
2021/04/16 07:19:53;;;;;;;8.68;4.97;;;;;;;1.30;82.60;98719.34;5006679;28;20048;-77
2021/04/16 07:22:23;;;;;;;10.00;6.30;;;;;;;1.25;82.44;98722.72;5025704;28;20471;-75
2021/04/16 07:24:51;;;;;;;13.93;7.22;;;;;;;1.25;82.80;98727.31;5010564;28;20030;-75
2021/04/16 07:27:40;;;;;;;11.98;7.50;;;;;;;1.29;82.90;98717.69;5011717;28;20024;-76
2021/04/16 07:30:08;;;;;;;11.75;7.65;;;;;;;1.31;82.80;98721.00;5011433;28;20041;-75
2021/04/16 07:32:41;;;;;;;12.25;6.22;;;;;;;1.33;82.72;98722.41;5011305;28;20030;-75
2021/04/16 07:35:18;;;;;;;10.90;7.60;;;;;;;1.36;82.91;98715.72;5011391;28;20113;-76
2021/04/16 07:37:47;;;;;;;12.45;8.13;;;;;;;1.40;82.65;98710.66;4993962;28;20082;-73
2021/04/16 07:40:24;;;;;;;9.90;5.68;;;;;;;1.41;83.16;98707.75;5010544;28;20103;-73
2021/04/16 07:42:51;;;;;;;13.48;7.78;;;;;;;1.42;82.74;98713.97;5009664;28;20034;-73
2021/04/16 07:45:19;;;;;;;13.93;7.32;;;;;;;1.43;82.89;98712.91;5009191;28;20038;-73
2021/04/16 07:47:46;;;;;;;14.23;8.35;;;;;;;1.43;82.50;98715.63;5009332;28;20034;-74
2021/04/16 07:50:27;;;;;;;15.73;9.73;;;;;;;1.44;82.62;98720.78;5009999;28;20052;-75
2021/04/16 07:52:53;;;;;;;11.75;7.47;;;;;;;1.49;82.67;98718.22;5010576;28;20108;-74
2021/04/16 07:55:30;;;;;;;15.70;8.75;;;;;;;1.48;82.99;98719.28;5011334;28;20030;-74
2021/04/16 07:58:21;;;;;;;15.40;8.82;;;;;;;1.54;83.07;98720.25;5011292;28;20112;-75
2021/04/16 08:00:50;;;;;;;12.95;7.82;;;;;;;1.62;83.14;98735.31;5011342;28;20048;-75
2021/04/16 08:03:25;;;;;;;13.27;9.20;;;;;;;1.61;82.99;98725.53;5011219;28;20029;-74
2021/04/16 08:05:53;;;;;;;13.30;7.70;;;;;;;1.61;82.49;98731.78;5011065;28;20058;-74
2021/04/16 08:08:20;;;;;;;12.98;7.75;;;;;;;1.63;82.47;98729.66;5011289;28;20030;-75
2021/04/16 08:10:51;;;;;;;10.48;6.88;;;;;;;1.59;83.04;98730.34;5011336;28;20026;-76
2021/04/16 08:13:30;;;;;;;9.93;6.85;;;;;;;1.57;82.47;98729.75;4993826;28;20102;-74
2021/04/16 08:16:15;;;;;;;10.87;5.87;;;;;;;1.48;82.84;98732.78;5011222;28;20029;-75
2021/04/16 08:18:43;;;;;;;11.45;6.88;;;;;;;1.46;83.23;98737.59;5011254;28;20041;-75
2021/04/16 08:21:18;;;;;;;15.27;8.23;;;;;;;1.51;83.18;98736.09;5010556;28;20112;-75
2021/04/16 08:23:59;;;;;;;9.73;6.10;;;;;;;1.57;83.11;98743.28;5010645;28;20030;-75
2021/04/16 08:26:30;;;;;;;10.38;6.63;;;;;;;1.59;83.30;98733.06;5010458;28;20026;-76
2021/04/16 08:29:12;;;;;;;15.25;8.30;;;;;;;1.57;83.29;98737.88;5010479;28;20038;-75
2021/04/16 08:31:59;;;;;;;25.40;10.80;;;;;;;1.57;83.52;98743.28;5010571;28;20080;-75
2021/04/16 08:34:38;;;;;;;13.85;6.95;;;;;;;1.57;83.82;98738.72;5010470;28;20034;-76
2021/04/16 08:37:04;;;;;;;15.20;8.68;;;;;;;1.56;82.97;98737.06;5010542;28;20194;-75
2021/04/16 08:39:31;;;;;;;18.10;9.20;;;;;;;1.59;83.84;98736.59;5010420;28;20072;-75
2021/04/16 08:41:58;;;;;;;14.18;7.63;;;;;;;1.59;83.84;98733.06;5010117;28;20036;-75
2021/04/16 08:44:26;;;;;;;22.40;12.20;;;;;;;1.60;83.81;98734.72;5009967;28;20041;-75
2021/04/16 08:46:55;;;;;;;20.73;12.52;;;;;;;1.58;84.25;98743.06;5010411;28;20026;-75
2021/04/16 08:49:32;;;;;;;17.35;9.05;;;;;;;1.62;83.77;98752.38;5010136;28;20034;-75
2021/04/16 08:52:06;;;;;;;12.00;8.25;;;;;;;1.64;84.59;98752.13;5010250;28;20485;-75
2021/04/16 08:54:34;;;;;;;14.68;8.30;;;;;;;1.62;84.03;98743.41;4992979;28;20499;-75
2021/04/16 08:57:06;;;;;;;12.30;7.20;;;;;;;1.61;84.35;98747.16;5010593;28;20045;-74
2021/04/16 08:59:44;;;;;;;12.85;6.93;;;;;;;1.62;84.49;98746.13;5010854;28;20034;-75
2021/04/16 09:02:19;;;;;;;13.70;7.85;;;;;;;1.64;84.32;98747.53;5010589;28;20034;-75
2021/04/16 09:04:49;;;;;;;11.93;6.95;;;;;;;1.66;84.55;98758.13;5010464;28;20483;-75
2021/04/16 09:07:35;;;;;;;15.50;7.78;;;;;;;1.67;84.42;98748.13;5010198;28;20046;-75
2021/04/16 09:10:05;;;;;;;18.65;9.60;;;;;;;1.65;84.59;98748.38;5010418;28;20180;-75
2021/04/16 09:12:39;;;;;;;24.60;11.27;;;;;;;1.63;84.70;98747.78;5010270;28;20022;-75
2021/04/16 09:15:21;;;;;;;14.82;8.30;;;;;;;1.64;84.61;98749.41;5009983;28;20018;-75
2021/04/16 09:17:52;;;;;;;17.08;8.73;;;;;;;1.67;84.93;98750.81;5010098;28;20029;-75
2021/04/16 09:20:19;;;;;;;15.45;7.68;;;;;;;1.65;85.04;98748.38;5009949;28;20053;-75
2021/04/16 09:22:45;;;;;;;14.15;7.57;;;;;;;1.66;85.21;98749.16;5009952;28;20022;-75
2021/04/16 09:25:32;;;;;;;8.02;4.57;;;;;;;1.68;85.08;98747.91;5009077;28;20366;-75
2021/04/16 09:28:22;;;;;;;13.05;7.05;;;;;;;1.71;84.88;98746.59;5008919;28;20051;-75
2021/04/16 09:30:55;;;;;;;12.15;7.18;;;;;;;1.70;85.04;98748.50;5000220;28;20030;-75
2021/04/16 09:33:48;;;;;;;9.18;5.78;;;;;;;1.75;85.36;98745.94;5009009;28;20030;-75
2021/04/16 09:36:43;;;;;;;10.05;5.75;;;;;;;1.83;85.39;98755.59;5009166;28;20494;-74
2021/04/16 09:39:14;;;;;;;10.15;6.63;;;;;;;1.88;84.86;98754.88;5009636;28;20076;-75
2021/04/16 09:41:43;;;;;;;9.88;6.10;;;;;;;1.91;84.98;98760.66;5009601;28;20478;-74
2021/04/16 09:44:26;;;;;;;7.90;5.20;;;;;;;1.87;84.75;98759.47;5009620;28;20033;-75
2021/04/16 09:46:53;;;;;;;12.95;7.32;;;;;;;1.88;84.65;98753.00;5009508;28;20374;-75
2021/04/16 09:49:24;;;;;;;12.05;8.10;;;;;;;1.96;85.28;98759.94;5009436;28;20052;-75
2021/04/16 09:51:55;;;;;;;12.05;7.28;;;;;;;1.97;84.67;98761.59;5009362;28;20555;-75
2021/04/16 09:54:20;;;;;;;10.70;6.60;;;;;;;1.98;85.24;98759.75;5009470;28;20042;-76
2021/04/16 09:57:01;;;;;;;12.25;6.10;;;;;;;1.93;84.57;98761.25;5009271;28;20034;-75
2021/04/16 09:59:37;;;;;;;11.15;6.80;;;;;;;1.96;84.71;98749.13;5009421;28;20363;-75
2021/04/16 10:02:16;;;;;;;13.32;7.78;;;;;;;1.91;85.03;98757.13;4991870;28;20030;-74
2021/04/16 10:04:57;;;;;;;14.43;8.07;;;;;;;1.94;84.68;98753.94;5009535;28;20026;-75
2021/04/16 10:07:33;;;;;;;13.93;8.88;;;;;;;1.97;84.54;98758.09;4991576;28;20490;-74
2021/04/16 10:10:13;;;;;;;14.57;8.38;;;;;;;1.97;85.24;98756.19;5009240;28;20026;-74
2021/04/16 10:12:40;;;;;;;12.60;7.43;;;;;;;2.00;84.83;98754.91;5009168;28;20025;-74
2021/04/16 10:15:36;;;;;;;24.80;12.15;;;;;;;2.05;85.19;98763.13;5009121;28;20049;-74
2021/04/16 10:18:07;;;;;;;12.13;7.32;;;;;;;2.06;85.22;98759.38;4989188;28;20042;-73
2021/04/16 10:20:40;;;;;;;16.05;8.60;;;;;;;2.01;84.98;98751.16;5009128;28;20097;-73
2021/04/16 10:23:22;;;;;;;13.13;7.60;;;;;;;2.01;84.81;98756.56;4991554;28;20459;-74
2021/04/16 11:24:46;;;;;;;47.53;19.63;;;;;;;2.55;85.15;98745.66;5020653;28;20105;-74
2021/04/16 12:41:17;;;;;;;19.77;11.40;;;;;;;2.79;85.05;98775.41;4993557;28;20034;-80
2021/04/16 12:43:44;;;;;;;14.75;8.70;;;;;;;2.83;84.67;98771.16;5010833;28;20386;-81
2021/04/16 12:46:14;;;;;;;13.13;8.43;;;;;;;2.81;84.31;98776.81;5010696;28;20030;-82
2021/04/16 12:48:39;;;;;;;19.08;10.68;;;;;;;2.75;84.61;98777.78;5010527;28;20083;-82
2021/04/16 12:51:05;;;;;;;17.05;10.88;;;;;;;2.72;84.48;98783.66;5010589;28;20030;-82
2021/04/16 12:53:30;;;;;;;20.00;11.07;;;;;;;2.73;84.63;98773.63;5010584;28;20026;-81
2021/04/16 12:55:55;;;;;;;20.10;11.13;;;;;;;2.73;84.35;98777.19;5010417;28;20030;-83
2021/04/16 12:58:27;;;;;;;23.33;12.98;;;;;;;2.74;84.34;98775.28;5010137;28;20374;-82
2021/04/16 13:00:52;;;;;;;19.00;10.35;;;;;;;2.76;84.91;98774.00;5009294;28;20030;-82
2021/04/16 13:03:30;;;;;;;16.25;9.27;;;;;;;2.75;84.07;98771.53;5010188;28;20128;-81
2021/04/16 13:05:57;;;;;;;14.65;9.10;;;;;;;2.71;84.38;98782.00;5010114;28;20103;-82
2021/04/16 13:08:22;;;;;;;15.00;9.27;;;;;;;2.69;84.63;98767.88;5009325;28;20057;-82
2021/04/16 13:10:48;;;;;;;15.88;9.32;;;;;;;2.68;84.60;98769.75;5010439;28;20073;-81
2021/04/16 13:13:14;;;;;;;19.98;11.75;;;;;;;2.69;84.05;98770.59;5010040;28;20036;-80
2021/04/16 13:15:39;;;;;;;19.83;11.45;;;;;;;2.76;84.57;98773.16;5010201;28;20030;-81
2021/04/16 13:18:15;;;;;;;13.15;8.15;;;;;;;2.81;84.73;98776.00;5010070;28;20424;-81
2021/04/16 13:20:47;;;;;;;19.98;12.30;;;;;;;2.87;84.72;98764.22;5009688;28;20062;-81
2021/04/16 13:23:12;;;;;;;22.98;12.50;;;;;;;2.92;84.07;98761.63;5007151;28;20124;-81
2021/04/16 13:25:38;;;;;;;18.70;11.77;;;;;;;2.96;84.09;98762.78;5009368;28;20127;-74
2021/04/16 13:28:04;;;;;;;22.38;13.65;;;;;;;2.93;83.64;98765.13;5009169;28;20034;-77
2021/04/16 13:30:29;;;;;;;23.17;13.23;;;;;;;2.93;84.10;98760.56;5009180;28;20018;-77
2021/04/16 13:33:00;;;;;;;38.10;19.48;;;;;;;2.91;83.68;98773.50;5009208;28;20422;-79
2021/04/16 13:35:35;;;;;;;29.08;16.40;;;;;;;2.85;83.94;98774.47;5009219;28;20109;-77
2021/04/16 13:38:04;;;;;;;24.33;13.95;;;;;;;2.83;83.71;98769.28;5008967;28;20034;-78
2021/04/16 13:40:32;;;;;;;17.90;11.70;;;;;;;2.79;83.66;98764.56;5008999;28;20033;-78
2021/04/16 13:42:58;;;;;;;22.20;13.38;;;;;;;2.79;83.86;98776.25;5009033;28;20026;-79
2021/04/16 13:45:23;;;;;;;20.67;12.07;;;;;;;2.80;83.59;98774.34;5009056;28;20034;-79
2021/04/16 13:47:48;;;;;;;21.30;13.35;;;;;;;2.78;84.08;98771.88;5008873;28;20030;-78
2021/04/16 13:50:16;;;;;;;22.25;12.82;;;;;;;2.72;83.75;98777.41;5009094;28;20022;-78
2021/04/16 13:52:43;;;;;;;17.35;10.98;;;;;;;2.66;84.02;98771.06;4991504;28;20106;-78